sensor_id;sensor_type;location;lat;lon;timestamp;pressure;altitude;pressure_sealevel;temperature
79495;BMP180;68951;53.130;18.104;2023-07-31T00:00:03;100477.20;;;
79495;BMP180;68951;53.130;18.104;2023-07-31T00:02:31;100482.40;;;
79495;BMP180;68951;53.130;18.104;2023-07-31T00:04:58;100482.40;;;
79495;BMP180;68951;53.130;18.104;2023-07-31T00:07:25;100483.60;;;
79495;BMP180;68951;53.130;18.104;2023-07-31T00:09:51;100479.20;;;
79495;BMP180;68951;53.130;18.104;2023-07-31T00:12:20;100482.80;;;
79495;BMP180;68951;53.130;18.104;2023-07-31T00:14:47;100482.60;;;
79495;BMP180;68951;53.130;18.104;2023-07-31T00:17:14;100480.40;;;
79495;BMP180;68951;53.130;18.104;2023-07-31T00:19:41;100474.80;;;
79495;BMP180;68951;53.130;18.104;2023-07-31T00:22:08;100484.80;;;
79495;BMP180;68951;53.130;18.104;2023-07-31T00:24:34;100482.40;;;
79495;BMP180;68951;53.130;18.104;2023-07-31T00:27:01;100483.00;;;
79495;BMP180;68951;53.130;18.104;2023-07-31T00:29:28;100477.00;;;
79495;BMP180;68951;53.130;18.104;2023-07-31T00:31:55;100475.40;;;
79495;BMP180;68951;53.130;18.104;2023-07-31T00:34:22;100471.80;;;
79495;BMP180;68951;53.130;18.104;2023-07-31T00:36:49;100473.00;;;
79495;BMP180;68951;53.130;18.104;2023-07-31T00:39:15;100475.80;;;
79495;BMP180;68951;53.130;18.104;2023-07-31T00:41:42;100477.80;;;
79495;BMP180;68951;53.130;18.104;2023-07-31T00:44:09;100481.00;;;
79495;BMP180;68951;53.130;18.104;2023-07-31T00:46:36;100485.80;;;
79495;BMP180;68951;53.130;18.104;2023-07-31T00:49:04;100480.00;;;
79495;BMP180;68951;53.130;18.104;2023-07-31T00:51:31;100480.00;;;
79495;BMP180;68951;53.130;18.104;2023-07-31T00:53:58;100484.60;;;
79495;BMP180;68951;53.130;18.104;2023-07-31T00:56:25;100487.40;;;
79495;BMP180;68951;53.130;18.104;2023-07-31T00:58:52;100480.00;;;
79495;BMP180;68951;53.130;18.104;2023-07-31T01:01:19;100486.40;;;
79495;BMP180;68951;53.130;18.104;2023-07-31T01:03:46;100484.20;;;
79495;BMP180;68951;53.130;18.104;2023-07-31T01:06:57;100482.20;;;
79495;BMP180;68951;53.130;18.104;2023-07-31T01:09:49;100483.00;;;
79495;BMP180;68951;53.130;18.104;2023-07-31T01:12:20;100488.00;;;
79495;BMP180;68951;53.130;18.104;2023-07-31T01:15:08;100494.80;;;
79495;BMP180;68951;53.130;18.104;2023-07-31T01:17:39;100490.40;;;
79495;BMP180;68951;53.130;18.104;2023-07-31T01:20:14;100493.00;;;
79495;BMP180;68951;53.130;18.104;2023-07-31T01:26:13;100499.20;;;
79495;BMP180;68951;53.130;18.104;2023-07-31T01:29:07;100498.20;;;
79495;BMP180;68951;53.130;18.104;2023-07-31T01:31:37;100492.00;;;
79495;BMP180;68951;53.130;18.104;2023-07-31T01:34:08;100492.00;;;
79495;BMP180;68951;53.130;18.104;2023-07-31T01:36:36;100496.20;;;
79495;BMP180;68951;53.130;18.104;2023-07-31T01:39:03;100497.40;;;
79495;BMP180;68951;53.130;18.104;2023-07-31T01:41:30;100493.80;;;
79495;BMP180;68951;53.130;18.104;2023-07-31T01:43:57;100491.20;;;
79495;BMP180;68951;53.130;18.104;2023-07-31T01:46:24;100491.00;;;
79495;BMP180;68951;53.130;18.104;2023-07-31T01:48:51;100490.20;;;
79495;BMP180;68951;53.130;18.104;2023-07-31T01:51:17;100486.60;;;
79495;BMP180;68951;53.130;18.104;2023-07-31T01:53:44;100481.00;;;
79495;BMP180;68951;53.130;18.104;2023-07-31T01:56:11;100488.00;;;
79495;BMP180;68951;53.130;18.104;2023-07-31T01:58:38;100488.60;;;
79495;BMP180;68951;53.130;18.104;2023-07-31T02:01:05;100488.00;;;
79495;BMP180;68951;53.130;18.104;2023-07-31T02:03:32;100492.80;;;
79495;BMP180;68951;53.130;18.104;2023-07-31T02:05:59;100487.60;;;
79495;BMP180;68951;53.130;18.104;2023-07-31T02:08:26;100491.40;;;
79495;BMP180;68951;53.130;18.104;2023-07-31T02:10:53;100492.20;;;
79495;BMP180;68951;53.130;18.104;2023-07-31T02:13:20;100488.40;;;
79495;BMP180;68951;53.130;18.104;2023-07-31T02:15:48;100487.00;;;
79495;BMP180;68951;53.130;18.104;2023-07-31T02:18:14;100483.40;;;
79495;BMP180;68951;53.130;18.104;2023-07-31T02:20:41;100488.40;;;
79495;BMP180;68951;53.130;18.104;2023-07-31T02:23:08;100481.60;;;
79495;BMP180;68951;53.130;18.104;2023-07-31T02:25:35;100486.60;;;
79495;BMP180;68951;53.130;18.104;2023-07-31T02:28:02;100487.20;;;
79495;BMP180;68951;53.130;18.104;2023-07-31T02:30:29;100490.00;;;
79495;BMP180;68951;53.130;18.104;2023-07-31T02:32:56;100487.20;;;
79495;BMP180;68951;53.130;18.104;2023-07-31T02:35:23;100484.40;;;
79495;BMP180;68951;53.130;18.104;2023-07-31T02:37:50;100488.00;;;
79495;BMP180;68951;53.130;18.104;2023-07-31T02:40:16;100490.20;;;
79495;BMP180;68951;53.130;18.104;2023-07-31T02:42:43;100491.40;;;
79495;BMP180;68951;53.130;18.104;2023-07-31T02:45:10;100494.60;;;
79495;BMP180;68951;53.130;18.104;2023-07-31T02:47:37;100497.00;;;
79495;BMP180;68951;53.130;18.104;2023-07-31T02:50:05;100498.60;;;
79495;BMP180;68951;53.130;18.104;2023-07-31T02:52:32;100499.60;;;
79495;BMP180;68951;53.130;18.104;2023-07-31T02:54:59;100495.40;;;
79495;BMP180;68951;53.130;18.104;2023-07-31T02:57:26;100494.00;;;
79495;BMP180;68951;53.130;18.104;2023-07-31T02:59:52;100496.20;;;
79495;BMP180;68951;53.130;18.104;2023-07-31T03:02:19;100501.00;;;
79495;BMP180;68951;53.130;18.104;2023-07-31T03:04:46;100498.40;;;
79495;BMP180;68951;53.130;18.104;2023-07-31T03:07:13;100491.40;;;
79495;BMP180;68951;53.130;18.104;2023-07-31T03:09:40;100486.20;;;
79495;BMP180;68951;53.130;18.104;2023-07-31T03:12:07;100494.40;;;
79495;BMP180;68951;53.130;18.104;2023-07-31T03:14:34;100495.60;;;
79495;BMP180;68951;53.130;18.104;2023-07-31T03:17:01;100493.20;;;
79495;BMP180;68951;53.130;18.104;2023-07-31T03:19:31;100489.60;;;
79495;BMP180;68951;53.130;18.104;2023-07-31T03:21:59;100494.60;;;
79495;BMP180;68951;53.130;18.104;2023-07-31T03:24:26;100504.40;;;
79495;BMP180;68951;53.130;18.104;2023-07-31T03:26:54;100504.40;;;
79495;BMP180;68951;53.130;18.104;2023-07-31T03:29:21;100509.20;;;
79495;BMP180;68951;53.130;18.104;2023-07-31T03:31:48;100507.20;;;
79495;BMP180;68951;53.130;18.104;2023-07-31T03:34:15;100513.00;;;
79495;BMP180;68951;53.130;18.104;2023-07-31T03:36:42;100518.00;;;
79495;BMP180;68951;53.130;18.104;2023-07-31T03:39:08;100512.80;;;
79495;BMP180;68951;53.130;18.104;2023-07-31T03:41:35;100517.60;;;
79495;BMP180;68951;53.130;18.104;2023-07-31T03:44:03;100520.60;;;
79495;BMP180;68951;53.130;18.104;2023-07-31T03:46:30;100518.60;;;
79495;BMP180;68951;53.130;18.104;2023-07-31T03:48:56;100521.60;;;
79495;BMP180;68951;53.130;18.104;2023-07-31T03:51:23;100524.80;;;
79495;BMP180;68951;53.130;18.104;2023-07-31T03:53:50;100525.20;;;
79495;BMP180;68951;53.130;18.104;2023-07-31T03:56:17;100531.00;;;
79495;BMP180;68951;53.130;18.104;2023-07-31T03:58:43;100528.00;;;
79495;BMP180;68951;53.130;18.104;2023-07-31T04:01:10;100524.60;;;
79495;BMP180;68951;53.130;18.104;2023-07-31T04:03:37;100525.60;;;
79495;BMP180;68951;53.130;18.104;2023-07-31T04:06:04;100526.20;;;
79495;BMP180;68951;53.130;18.104;2023-07-31T04:08:33;100536.40;;;
79495;BMP180;68951;53.130;18.104;2023-07-31T04:11:00;100529.80;;;
79495;BMP180;68951;53.130;18.104;2023-07-31T04:13:29;100529.00;;;
79495;BMP180;68951;53.130;18.104;2023-07-31T04:15:56;100524.80;;;
79495;BMP180;68951;53.130;18.104;2023-07-31T04:18:25;100524.40;;;
79495;BMP180;68951;53.130;18.104;2023-07-31T04:20:52;100519.60;;;
79495;BMP180;68951;53.130;18.104;2023-07-31T04:23:19;100517.60;;;
79495;BMP180;68951;53.130;18.104;2023-07-31T04:25:46;100519.80;;;
79495;BMP180;68951;53.130;18.104;2023-07-31T04:28:13;100517.00;;;
79495;BMP180;68951;53.130;18.104;2023-07-31T04:30:39;100517.80;;;
79495;BMP180;68951;53.130;18.104;2023-07-31T04:33:06;100516.20;;;
79495;BMP180;68951;53.130;18.104;2023-07-31T04:35:33;100509.80;;;
79495;BMP180;68951;53.130;18.104;2023-07-31T04:38:00;100514.40;;;
79495;BMP180;68951;53.130;18.104;2023-07-31T04:40:27;100515.40;;;
79495;BMP180;68951;53.130;18.104;2023-07-31T04:42:54;100515.20;;;
79495;BMP180;68951;53.130;18.104;2023-07-31T04:45:21;100512.00;;;
79495;BMP180;68951;53.130;18.104;2023-07-31T04:47:48;100515.60;;;
79495;BMP180;68951;53.130;18.104;2023-07-31T04:50:15;100515.80;;;
79495;BMP180;68951;53.130;18.104;2023-07-31T04:52:42;100519.80;;;
79495;BMP180;68951;53.130;18.104;2023-07-31T04:55:08;100520.00;;;
79495;BMP180;68951;53.130;18.104;2023-07-31T04:57:35;100524.60;;;
79495;BMP180;68951;53.130;18.104;2023-07-31T05:00:02;100529.00;;;
79495;BMP180;68951;53.130;18.104;2023-07-31T05:02:29;100525.80;;;
79495;BMP180;68951;53.130;18.104;2023-07-31T05:04:56;100526.80;;;
79495;BMP180;68951;53.130;18.104;2023-07-31T05:07:24;100524.20;;;
79495;BMP180;68951;53.130;18.104;2023-07-31T05:09:50;100522.60;;;
79495;BMP180;68951;53.130;18.104;2023-07-31T05:12:17;100525.80;;;
79495;BMP180;68951;53.130;18.104;2023-07-31T05:14:44;100532.40;;;
79495;BMP180;68951;53.130;18.104;2023-07-31T05:17:11;100529.00;;;
79495;BMP180;68951;53.130;18.104;2023-07-31T05:19:38;100527.40;;;
79495;BMP180;68951;53.130;18.104;2023-07-31T05:22:05;100523.20;;;
79495;BMP180;68951;53.130;18.104;2023-07-31T05:24:32;100524.60;;;
79495;BMP180;68951;53.130;18.104;2023-07-31T05:27:00;100531.80;;;
79495;BMP180;68951;53.130;18.104;2023-07-31T05:29:27;100530.20;;;
79495;BMP180;68951;53.130;18.104;2023-07-31T05:31:54;100536.20;;;
79495;BMP180;68951;53.130;18.104;2023-07-31T05:34:20;100530.80;;;
79495;BMP180;68951;53.130;18.104;2023-07-31T05:36:47;100534.20;;;
79495;BMP180;68951;53.130;18.104;2023-07-31T05:39:14;100532.60;;;
79495;BMP180;68951;53.130;18.104;2023-07-31T05:41:41;100530.40;;;
79495;BMP180;68951;53.130;18.104;2023-07-31T05:44:08;100524.20;;;
79495;BMP180;68951;53.130;18.104;2023-07-31T05:46:35;100527.80;;;
79495;BMP180;68951;53.130;18.104;2023-07-31T05:49:01;100523.60;;;
79495;BMP180;68951;53.130;18.104;2023-07-31T05:51:30;100525.40;;;
79495;BMP180;68951;53.130;18.104;2023-07-31T05:53:57;100518.20;;;
79495;BMP180;68951;53.130;18.104;2023-07-31T05:56:23;100526.00;;;
79495;BMP180;68951;53.130;18.104;2023-07-31T05:58:50;100524.20;;;
79495;BMP180;68951;53.130;18.104;2023-07-31T06:01:17;100525.60;;;
79495;BMP180;68951;53.130;18.104;2023-07-31T06:03:44;100527.00;;;
79495;BMP180;68951;53.130;18.104;2023-07-31T06:06:11;100528.20;;;
79495;BMP180;68951;53.130;18.104;2023-07-31T06:08:38;100526.60;;;
79495;BMP180;68951;53.130;18.104;2023-07-31T06:11:05;100522.40;;;
79495;BMP180;68951;53.130;18.104;2023-07-31T06:13:32;100529.20;;;
79495;BMP180;68951;53.130;18.104;2023-07-31T06:15:59;100520.80;;;
79495;BMP180;68951;53.130;18.104;2023-07-31T06:18:26;100533.20;;;
79495;BMP180;68951;53.130;18.104;2023-07-31T06:20:53;100533.40;;;
79495;BMP180;68951;53.130;18.104;2023-07-31T06:23:20;100532.20;;;
79495;BMP180;68951;53.130;18.104;2023-07-31T06:25:47;100537.40;;;
79495;BMP180;68951;53.130;18.104;2023-07-31T06:28:14;100535.60;;;
79495;BMP180;68951;53.130;18.104;2023-07-31T06:30:40;100530.20;;;
79495;BMP180;68951;53.130;18.104;2023-07-31T06:33:07;100534.40;;;
79495;BMP180;68951;53.130;18.104;2023-07-31T06:35:35;100531.00;;;
79495;BMP180;68951;53.130;18.104;2023-07-31T06:38:02;100534.00;;;
79495;BMP180;68951;53.130;18.104;2023-07-31T06:40:30;100533.60;;;
79495;BMP180;68951;53.130;18.104;2023-07-31T06:42:56;100538.40;;;
79495;BMP180;68951;53.130;18.104;2023-07-31T06:45:23;100532.40;;;
79495;BMP180;68951;53.130;18.104;2023-07-31T06:47:50;100532.20;;;
79495;BMP180;68951;53.130;18.104;2023-07-31T06:50:17;100535.40;;;
79495;BMP180;68951;53.130;18.104;2023-07-31T06:52:44;100535.80;;;
79495;BMP180;68951;53.130;18.104;2023-07-31T06:55:19;100535.80;;;
79495;BMP180;68951;53.130;18.104;2023-07-31T06:57:52;100538.40;;;
79495;BMP180;68951;53.130;18.104;2023-07-31T07:00:20;100533.40;;;
79495;BMP180;68951;53.130;18.104;2023-07-31T07:02:48;100533.80;;;
79495;BMP180;68951;53.130;18.104;2023-07-31T07:05:17;100533.20;;;
79495;BMP180;68951;53.130;18.104;2023-07-31T07:07:44;100533.60;;;
79495;BMP180;68951;53.130;18.104;2023-07-31T07:10:11;100534.60;;;
79495;BMP180;68951;53.130;18.104;2023-07-31T07:12:38;100531.60;;;
79495;BMP180;68951;53.130;18.104;2023-07-31T07:15:05;100528.60;;;
79495;BMP180;68951;53.130;18.104;2023-07-31T07:17:32;100533.60;;;
79495;BMP180;68951;53.130;18.104;2023-07-31T07:20:00;100532.20;;;
79495;BMP180;68951;53.130;18.104;2023-07-31T07:22:27;100536.40;;;
79495;BMP180;68951;53.130;18.104;2023-07-31T07:24:54;100536.40;;;
79495;BMP180;68951;53.130;18.104;2023-07-31T07:27:21;100533.20;;;
79495;BMP180;68951;53.130;18.104;2023-07-31T07:29:50;100541.00;;;
79495;BMP180;68951;53.130;18.104;2023-07-31T07:32:19;100540.60;;;
79495;BMP180;68951;53.130;18.104;2023-07-31T07:34:48;100538.40;;;
79495;BMP180;68951;53.130;18.104;2023-07-31T07:37:15;100539.60;;;
79495;BMP180;68951;53.130;18.104;2023-07-31T07:39:42;100536.60;;;
79495;BMP180;68951;53.130;18.104;2023-07-31T07:42:09;100535.20;;;
79495;BMP180;68951;53.130;18.104;2023-07-31T07:44:36;100542.00;;;
79495;BMP180;68951;53.130;18.104;2023-07-31T07:47:03;100550.60;;;
79495;BMP180;68951;53.130;18.104;2023-07-31T07:49:34;100546.40;;;
79495;BMP180;68951;53.130;18.104;2023-07-31T07:52:03;100542.00;;;
79495;BMP180;68951;53.130;18.104;2023-07-31T07:54:30;100536.60;;;
79495;BMP180;68951;53.130;18.104;2023-07-31T07:56:57;100541.00;;;
79495;BMP180;68951;53.130;18.104;2023-07-31T07:59:24;100539.20;;;
79495;BMP180;68951;53.130;18.104;2023-07-31T08:01:51;100535.60;;;
79495;BMP180;68951;53.130;18.104;2023-07-31T08:04:18;100545.60;;;
79495;BMP180;68951;53.130;18.104;2023-07-31T08:06:45;100544.00;;;
79495;BMP180;68951;53.130;18.104;2023-07-31T08:09:12;100544.00;;;
79495;BMP180;68951;53.130;18.104;2023-07-31T08:11:39;100537.20;;;
79495;BMP180;68951;53.130;18.104;2023-07-31T08:14:05;100541.60;;;
79495;BMP180;68951;53.130;18.104;2023-07-31T08:16:32;100535.00;;;
79495;BMP180;68951;53.130;18.104;2023-07-31T08:18:59;100538.20;;;
79495;BMP180;68951;53.130;18.104;2023-07-31T08:21:26;100535.40;;;
79495;BMP180;68951;53.130;18.104;2023-07-31T08:23:53;100533.40;;;
79495;BMP180;68951;53.130;18.104;2023-07-31T08:26:20;100536.60;;;
79495;BMP180;68951;53.130;18.104;2023-07-31T08:28:47;100529.40;;;
79495;BMP180;68951;53.130;18.104;2023-07-31T08:31:14;100533.60;;;
79495;BMP180;68951;53.130;18.104;2023-07-31T08:33:41;100531.40;;;
79495;BMP180;68951;53.130;18.104;2023-07-31T08:36:08;100534.60;;;
79495;BMP180;68951;53.130;18.104;2023-07-31T08:38:34;100532.80;;;
79495;BMP180;68951;53.130;18.104;2023-07-31T08:41:03;100525.80;;;
79495;BMP180;68951;53.130;18.104;2023-07-31T08:43:32;100526.00;;;
79495;BMP180;68951;53.130;18.104;2023-07-31T08:46:00;100530.00;;;
79495;BMP180;68951;53.130;18.104;2023-07-31T08:48:28;100525.60;;;
79495;BMP180;68951;53.130;18.104;2023-07-31T08:50:56;100530.00;;;
79495;BMP180;68951;53.130;18.104;2023-07-31T08:53:23;100521.20;;;
79495;BMP180;68951;53.130;18.104;2023-07-31T08:55:52;100519.00;;;
79495;BMP180;68951;53.130;18.104;2023-07-31T08:58:19;100520.80;;;
79495;BMP180;68951;53.130;18.104;2023-07-31T09:00:47;100514.60;;;
79495;BMP180;68951;53.130;18.104;2023-07-31T09:03:19;100518.40;;;
79495;BMP180;68951;53.130;18.104;2023-07-31T09:05:49;100517.20;;;
79495;BMP180;68951;53.130;18.104;2023-07-31T09:08:21;100512.00;;;
79495;BMP180;68951;53.130;18.104;2023-07-31T09:10:49;100514.40;;;
79495;BMP180;68951;53.130;18.104;2023-07-31T09:13:18;100514.20;;;
79495;BMP180;68951;53.130;18.104;2023-07-31T09:15:46;100509.00;;;
79495;BMP180;68951;53.130;18.104;2023-07-31T09:18:13;100506.80;;;
79495;BMP180;68951;53.130;18.104;2023-07-31T09:20:45;100506.20;;;
79495;BMP180;68951;53.130;18.104;2023-07-31T09:23:13;100501.60;;;
79495;BMP180;68951;53.130;18.104;2023-07-31T09:25:44;100499.00;;;
79495;BMP180;68951;53.130;18.104;2023-07-31T09:28:12;100499.20;;;
79495;BMP180;68951;53.130;18.104;2023-07-31T09:30:51;100496.60;;;
79495;BMP180;68951;53.130;18.104;2023-07-31T09:33:19;100495.40;;;
79495;BMP180;68951;53.130;18.104;2023-07-31T09:35:47;100493.40;;;
79495;BMP180;68951;53.130;18.104;2023-07-31T09:38:17;100488.60;;;
79495;BMP180;68951;53.130;18.104;2023-07-31T09:40:48;100491.00;;;
